Time;durP1;ratioP1;P1;durP2;ratioP2;P2;SDS_P1;SDS_P2;PMS_P1;PMS_P2;Temp;Humidity;BMP_temperature;BMP_pressure;BME280_temperature;BME280_humidity;BME280_pressure;Samples;Min_cycle;Max_cycle;Signal;HPM_P1;HPM_P2
2023/08/25 00:01:23;;;;;;;148.15;93.32;;;22.40;99.90;;;;;;5058568;28;20072;-65
2023/08/25 00:03:49;;;;;;;152.65;95.55;;;22.70;99.90;;;;;;5057816;28;20123;-65
2023/08/25 00:06:14;;;;;;;152.57;94.40;;;22.70;99.90;;;;;;5050570;28;20056;-65
2023/08/25 00:08:40;;;;;;;150.90;97.43;;;21.60;99.90;;;;;;5046290;28;20047;-65
2023/08/25 00:11:05;;;;;;;155.00;99.65;;;24.80;99.90;;;;;;5050950;28;20477;-65
2023/08/25 00:13:35;;;;;;;155.55;97.63;;;25.00;99.90;;;;;;5050897;28;20037;-65
2023/08/25 00:16:01;;;;;;;170.13;100.80;;;21.60;99.90;;;;;;5049745;28;20047;-66
2023/08/25 00:18:27;;;;;;;177.25;104.15;;;27.70;99.90;;;;;;5046990;28;20056;-66
2023/08/25 00:20:52;;;;;;;171.05;103.25;;;23.10;99.90;;;;;;5053086;28;20470;-66
2023/08/25 00:23:18;;;;;;;177.50;103.70;;;25.90;99.90;;;;;;5045182;28;20049;-66
2023/08/25 00:25:44;;;;;;;187.57;108.03;;;21.90;99.90;;;;;;5048776;28;20041;-66
2023/08/25 00:28:10;;;;;;;186.85;109.90;;;26.00;99.90;;;;;;5050351;28;20041;-66
2023/08/25 00:30:35;;;;;;;176.68;109.78;;;24.10;99.90;;;;;;5055767;28;20122;-66
2023/08/25 00:33:01;;;;;;;190.15;112.57;;;27.40;99.90;;;;;;5048832;28;20504;-66
2023/08/25 00:35:27;;;;;;;195.98;113.80;;;27.70;99.90;;;;;;5051977;28;20045;-66
2023/08/25 00:37:52;;;;;;;218.68;119.72;;;27.90;99.90;;;;;;5053904;28;20037;-66
2023/08/25 00:40:18;;;;;;;202.90;117.10;;;27.40;99.90;;;;;;5042607;28;20037;-66
2023/08/25 00:42:44;;;;;;;213.00;123.18;;;25.20;99.90;;;;;;5048775;28;20041;-66
2023/08/25 00:45:10;;;;;;;207.20;123.50;;;26.90;99.90;;;;;;5049103;28;20052;-66
2023/08/25 00:47:36;;;;;;;219.73;120.93;;;21.90;99.90;;;;;;5054293;28;20051;-66
2023/08/25 00:50:02;;;;;;;219.77;127.90;;;24.90;99.90;;;;;;5050257;28;20037;-66
2023/08/25 00:52:28;;;;;;;222.90;131.02;;;22.20;99.90;;;;;;5051526;28;20127;-66
2023/08/25 00:54:55;;;;;;;239.18;137.80;;;22.20;99.90;;;;;;5046505;28;20044;-66
2023/08/25 00:57:22;;;;;;;228.60;135.18;;;27.60;99.90;;;;;;5048500;28;20041;-66
2023/08/25 00:59:48;;;;;;;232.20;140.23;;;22.50;99.90;;;;;;5050139;28;20136;-66
2023/08/25 01:02:14;;;;;;;242.63;142.45;;;23.80;99.90;;;;;;5049185;28;20438;-66
2023/08/25 01:04:40;;;;;;;243.00;141.63;;;23.40;99.90;;;;;;5046037;28;20116;-66
2023/08/25 01:07:05;;;;;;;235.63;145.10;;;22.30;99.90;;;;;;5051836;28;20072;-66
2023/08/25 01:09:34;;;;;;;237.05;142.18;;;24.90;99.90;;;;;;5053264;28;20043;-66
2023/08/25 01:12:29;;;;;;;257.10;149.00;;;27.20;99.90;;;;;;5048959;28;20398;-66
2023/08/25 01:15:11;;;;;;;237.57;138.93;;;22.30;99.90;;;;;;5044854;28;20465;-66
2023/08/25 01:17:45;;;;;;;247.05;145.32;;;26.00;99.90;;;;;;5042961;28;20578;-66
2023/08/25 01:20:13;;;;;;;244.85;143.38;;;22.50;99.90;;;;;;5062138;28;20044;-66
2023/08/25 01:23:17;;;;;;;249.00;142.45;;;27.80;99.90;;;;;;5054495;28;20037;-66
2023/08/25 01:25:44;;;;;;;265.27;147.02;;;27.30;99.90;;;;;;5048677;28;20059;-67
2023/08/25 01:28:09;;;;;;;242.40;139.93;;;22.50;99.90;;;;;;5044082;28;20524;-67
2023/08/25 01:30:35;;;;;;;259.63;141.20;;;22.20;99.90;;;;;;5049162;28;20080;-67
2023/08/25 01:33:05;;;;;;;261.25;136.32;;;23.90;99.90;;;;;;5047752;28;20051;-68
2023/08/25 01:35:39;;;;;;;240.48;133.45;;;24.00;99.90;;;;;;5048107;28;20037;-67
2023/08/25 01:38:13;;;;;;;255.82;142.52;;;22.20;99.90;;;;;;5053119;28;20132;-67
2023/08/25 01:40:47;;;;;;;220.20;129.48;;;23.40;99.90;;;;;;5044545;28;20041;-67
2023/08/25 01:43:17;;;;;;;242.05;137.50;;;25.50;99.90;;;;;;5044005;28;20047;-67
2023/08/25 01:45:43;;;;;;;223.32;129.55;;;22.80;99.90;;;;;;5052871;28;20682;-67
2023/08/25 01:48:11;;;;;;;219.48;131.50;;;25.80;99.90;;;;;;5044857;28;20072;-67
2023/08/25 01:50:37;;;;;;;220.68;131.77;;;27.70;99.90;;;;;;5043758;28;20049;-66
2023/08/25 01:53:03;;;;;;;203.18;129.57;;;23.90;99.90;;;;;;5044165;28;20036;-67
2023/08/25 01:55:29;;;;;;;163.95;114.50;;;27.70;99.90;;;;;;5044632;28;20040;-67
2023/08/25 01:57:55;;;;;;;173.95;112.43;;;22.90;99.90;;;;;;5044415;28;20048;-67
2023/08/25 02:00:20;;;;;;;155.25;106.93;;;26.80;99.90;;;;;;5044701;28;20102;-67
2023/08/25 02:02:46;;;;;;;150.55;108.68;;;24.90;99.90;;;;;;5043398;28;20044;-67
2023/08/25 02:05:11;;;;;;;141.45;102.32;;;27.30;99.90;;;;;;5045198;28;20037;-66
2023/08/25 02:07:37;;;;;;;143.35;104.20;;;24.90;99.90;;;;;;5044284;28;20045;-67
2023/08/25 02:10:03;;;;;;;142.85;103.07;;;27.00;99.90;;;;;;5047959;28;20372;-67
2023/08/25 02:12:29;;;;;;;131.15;99.13;;;26.90;99.90;;;;;;5039383;28;20046;-67
2023/08/25 02:14:54;;;;;;;135.50;97.28;;;24.60;99.90;;;;;;5048522;28;20096;-67
2023/08/25 02:17:20;;;;;;;134.52;98.65;;;22.20;99.90;;;;;;5049643;28;20041;-67
2023/08/25 02:19:45;;;;;;;134.63;101.72;;;22.90;99.90;;;;;;5061164;28;20138;-67
2023/08/25 02:22:11;;;;;;;138.75;101.07;;;27.10;99.90;;;;;;5045468;28;20048;-67
2023/08/25 02:24:36;;;;;;;133.93;97.90;;;27.50;99.90;;;;;;5046837;28;21198;-67
2023/08/25 02:27:02;;;;;;;128.25;95.35;;;23.20;99.90;;;;;;5044752;28;21139;-67
2023/08/25 02:29:27;;;;;;;124.60;95.35;;;27.40;99.90;;;;;;5043889;28;20049;-67
2023/08/25 02:31:53;;;;;;;128.30;87.18;;;23.40;99.90;;;;;;5044187;28;20033;-67
2023/08/25 02:34:19;;;;;;;136.48;97.82;;;22.40;99.90;;;;;;5044395;28;20048;-67
2023/08/25 02:36:44;;;;;;;130.45;91.88;;;22.50;99.90;;;;;;5043067;28;20037;-66
2023/08/25 02:39:10;;;;;;;122.28;93.35;;;28.10;99.90;;;;;;5051107;28;20029;-66
2023/08/25 02:41:35;;;;;;;128.32;92.45;;;22.60;99.90;;;;;;5047311;28;20139;-66
2023/08/25 02:44:01;;;;;;;135.75;92.70;;;22.20;99.90;;;;;;5049251;28;20403;-66
2023/08/25 02:46:26;;;;;;;122.82;87.68;;;26.60;99.90;;;;;;5048616;28;20047;-66
2023/08/25 02:48:52;;;;;;;123.85;85.45;;;25.40;99.90;;;;;;5049231;28;20039;-66
2023/08/25 02:51:17;;;;;;;129.55;87.20;;;27.40;99.90;;;;;;5052738;28;20048;-66
2023/08/25 02:53:43;;;;;;;124.15;84.57;;;28.00;99.90;;;;;;5049978;28;20041;-66
2023/08/25 02:56:08;;;;;;;125.65;91.90;;;26.90;99.90;;;;;;5054451;28;20044;-66
2023/08/25 02:58:34;;;;;;;118.72;86.93;;;25.30;99.90;;;;;;5049905;28;20497;-66
2023/08/25 03:01:00;;;;;;;121.20;85.63;;;22.00;99.90;;;;;;5063256;28;20109;-66
2023/08/25 03:03:28;;;;;;;133.00;87.75;;;27.60;99.90;;;;;;5052019;28;20123;-66
2023/08/25 03:05:58;;;;;;;126.28;87.22;;;24.00;99.90;;;;;;5058411;28;20045;-66
2023/08/25 03:08:23;;;;;;;117.47;90.05;;;22.30;99.90;;;;;;5050119;28;20041;-66
2023/08/25 03:10:49;;;;;;;129.95;83.35;;;24.30;99.90;;;;;;5050750;28;20414;-66
2023/08/25 03:13:14;;;;;;;126.57;89.63;;;28.00;99.90;;;;;;5049979;28;20032;-66
2023/08/25 03:15:40;;;;;;;120.65;85.97;;;23.20;99.90;;;;;;5052232;28;20115;-66
2023/08/25 03:18:05;;;;;;;117.32;90.50;;;28.20;99.90;;;;;;5052222;28;20033;-66
2023/08/25 03:20:31;;;;;;;116.95;88.28;;;26.60;99.90;;;;;;5052144;28;20048;-66
2023/08/25 03:22:57;;;;;;;119.32;89.00;;;21.80;99.90;;;;;;5048762;28;20033;-66
2023/08/25 03:25:23;;;;;;;123.97;89.20;;;26.60;99.90;;;;;;5052605;28;20048;-66
2023/08/25 03:27:48;;;;;;;109.85;89.20;;;22.30;99.90;;;;;;5052176;28;20040;-66
2023/08/25 03:30:14;;;;;;;120.00;89.70;;;25.10;99.90;;;;;;5051815;28;20596;-66
2023/08/25 03:32:39;;;;;;;125.72;91.60;;;24.60;99.90;;;;;;5052786;28;20033;-66
2023/08/25 03:35:06;;;;;;;118.82;87.45;;;28.10;99.90;;;;;;5051549;28;20067;-66
2023/08/25 03:37:31;;;;;;;127.82;89.80;;;23.20;99.90;;;;;;5083102;28;20056;-66
2023/08/25 03:39:57;;;;;;;109.63;86.53;;;24.90;99.90;;;;;;5044241;28;20057;-66
2023/08/25 03:42:22;;;;;;;112.72;82.78;;;27.70;99.90;;;;;;5052014;28;20132;-66
2023/08/25 03:44:48;;;;;;;99.45;81.93;;;21.60;99.90;;;;;;5053512;28;20037;-66
2023/08/25 03:47:13;;;;;;;89.03;79.20;;;27.80;99.90;;;;;;5057614;28;20045;-66
2023/08/25 03:49:39;;;;;;;88.05;75.38;;;21.80;99.90;;;;;;5047000;28;20129;-66
2023/08/25 03:52:05;;;;;;;81.63;69.75;;;21.70;99.90;;;;;;5046033;28;20152;-66
2023/08/25 03:54:31;;;;;;;71.55;63.80;;;21.50;99.90;;;;;;5049694;28;20040;-66
2023/08/25 03:56:57;;;;;;;67.32;60.63;;;25.80;99.90;;;;;;5049910;28;20053;-66
2023/08/25 03:59:23;;;;;;;63.38;56.80;;;24.40;99.90;;;;;;5046011;28;20076;-66
2023/08/25 04:01:49;;;;;;;62.97;56.58;;;23.90;99.90;;;;;;5048997;28;20084;-66
2023/08/25 04:04:14;;;;;;;62.90;56.40;;;27.40;99.90;;;;;;5051363;28;20108;-66
2023/08/25 04:06:41;;;;;;;63.65;57.50;;;25.50;99.90;;;;;;5051175;28;20120;-66
2023/08/25 04:09:07;;;;;;;65.07;58.47;;;27.20;99.90;;;;;;5047165;28;20485;-66
2023/08/25 04:11:32;;;;;;;64.90;58.35;;;25.40;99.90;;;;;;5047264;28;20043;-66
2023/08/25 04:13:58;;;;;;;66.75;59.85;;;27.20;99.90;;;;;;5050545;28;20061;-66
2023/08/25 04:16:23;;;;;;;65.68;59.15;;;23.40;99.90;;;;;;5048066;28;20051;-66
2023/08/25 04:18:49;;;;;;;67.32;60.83;;;22.70;99.90;;;;;;5050064;28;20049;-66
2023/08/25 04:21:14;;;;;;;67.53;60.40;;;27.60;99.90;;;;;;5046480;28;20128;-66
2023/08/25 04:23:40;;;;;;;68.70;61.28;;;26.70;99.90;;;;;;5047709;28;20044;-66
2023/08/25 04:26:05;;;;;;;69.88;61.72;;;27.10;99.90;;;;;;5032110;28;20044;-66
2023/08/25 04:28:31;;;;;;;64.72;58.25;;;24.80;99.90;;;;;;5053517;28;20045;-66
2023/08/25 04:30:57;;;;;;;65.28;58.53;;;27.30;99.90;;;;;;5067892;28;20124;-66
2023/08/25 04:33:22;;;;;;;65.00;58.42;;;21.40;99.90;;;;;;5049898;28;20048;-66
2023/08/25 04:35:48;;;;;;;66.82;59.70;;;22.40;99.90;;;;;;5050792;28;20040;-66
2023/08/25 04:38:13;;;;;;;64.32;57.83;;;21.60;99.90;;;;;;5048443;28;20186;-66
2023/08/25 04:40:39;;;;;;;62.83;56.30;;;21.70;99.90;;;;;;5045805;28;20106;-66
2023/08/25 04:43:05;;;;;;;59.72;53.47;;;27.60;99.90;;;;;;5045325;28;20406;-66
2023/08/25 04:45:31;;;;;;;57.80;51.85;;;27.00;99.90;;;;;;5044472;28;20037;-66
2023/08/25 04:47:56;;;;;;;59.22;53.15;;;22.40;99.90;;;;;;5051905;28;20048;-66
2023/08/25 04:50:22;;;;;;;58.10;52.53;;;21.50;99.90;;;;;;5052378;28;20037;-66
2023/08/25 04:52:48;;;;;;;57.67;51.83;;;22.10;99.90;;;;;;5049485;28;20078;-66
2023/08/25 04:55:13;;;;;;;57.38;51.90;;;22.50;99.90;;;;;;5048637;28;20083;-65
2023/08/25 04:57:41;;;;;;;57.38;51.60;;;25.70;99.90;;;;;;5041418;28;20403;-66
2023/08/25 05:00:08;;;;;;;59.22;53.33;;;25.30;99.90;;;;;;5056125;28;20064;-66
2023/08/25 05:02:34;;;;;;;57.15;51.60;;;23.20;99.90;;;;;;5049139;28;20178;-66
2023/08/25 05:05:02;;;;;;;55.33;49.42;;;27.40;99.90;;;;;;5049060;28;20540;-66
2023/08/25 05:07:27;;;;;;;52.15;47.15;;;26.60;99.90;;;;;;5048833;28;20033;-66
2023/08/25 05:09:53;;;;;;;52.33;47.35;;;22.00;99.90;;;;;;5050126;28;20107;-66
2023/08/25 05:12:19;;;;;;;50.42;45.53;;;23.20;99.90;;;;;;5047776;28;20048;-66
2023/08/25 05:14:45;;;;;;;52.08;46.35;;;25.70;99.90;;;;;;5045997;28;20123;-66
2023/08/25 05:17:10;;;;;;;50.30;45.17;;;24.80;99.90;;;;;;5040064;28;20517;-66
2023/08/25 05:19:36;;;;;;;49.13;44.45;;;22.30;99.90;;;;;;5044217;28;20113;-66
2023/08/25 05:22:02;;;;;;;49.10;43.88;;;27.30;99.90;;;;;;5043379;28;20068;-66
2023/08/25 05:24:28;;;;;;;49.63;44.65;;;26.10;99.90;;;;;;5052204;28;20284;-66
2023/08/25 05:26:54;;;;;;;50.03;44.90;;;22.30;99.90;;;;;;5040553;28;20033;-66
2023/08/25 05:29:24;;;;;;;48.20;43.50;;;25.90;99.90;;;;;;5044015;28;20090;-66
2023/08/25 05:31:51;;;;;;;47.30;42.63;;;24.60;99.90;;;;;;5050544;28;20403;-66
2023/08/25 05:34:17;;;;;;;49.10;44.25;;;22.00;99.90;;;;;;5048233;28;20037;-66
2023/08/25 05:36:43;;;;;;;50.17;45.22;;;26.50;99.90;;;;;;5043687;28;20036;-66
2023/08/25 05:39:09;;;;;;;50.83;45.55;;;27.40;99.90;;;;;;5046909;28;20044;-66
2023/08/25 05:41:35;;;;;;;50.17;45.30;;;23.90;99.90;;;;;;5043636;28;20029;-66
2023/08/25 05:44:01;;;;;;;52.30;46.90;;;22.00;99.90;;;;;;5041991;28;20137;-66
2023/08/25 05:46:29;;;;;;;53.20;47.88;;;21.90;99.90;;;;;;5049473;28;20036;-66
2023/08/25 05:48:55;;;;;;;54.15;48.35;;;23.30;99.90;;;;;;5043803;28;20090;-66
2023/08/25 05:51:21;;;;;;;53.45;48.45;;;27.60;99.90;;;;;;5046171;28;20465;-66
2023/08/25 05:53:46;;;;;;;54.63;49.25;;;27.90;99.90;;;;;;5047907;28;20402;-66
2023/08/25 05:56:12;;;;;;;55.38;50.03;;;24.00;99.90;;;;;;5043422;28;20037;-66
2023/08/25 05:58:37;;;;;;;55.90;50.42;;;27.10;99.90;;;;;;5040536;28;20436;-66
2023/08/25 06:01:03;;;;;;;56.15;50.53;;;22.30;99.90;;;;;;5044639;28;20057;-66
2023/08/25 06:03:28;;;;;;;57.85;51.95;;;27.80;99.90;;;;;;5047435;28;20048;-66
2023/08/25 06:05:54;;;;;;;58.40;52.15;;;25.30;99.90;;;;;;5044048;28;20042;-66
2023/08/25 06:08:20;;;;;;;59.13;53.15;;;28.20;99.90;;;;;;5043212;28;20417;-66
2023/08/25 06:10:46;;;;;;;59.60;53.42;;;23.40;99.90;;;;;;5039354;28;20811;-66
2023/08/25 06:13:12;;;;;;;62.55;54.22;;;22.60;99.90;;;;;;5048707;28;20107;-66
2023/08/25 06:15:38;;;;;;;61.17;54.97;;;27.50;99.90;;;;;;5038850;28;20406;-66
2023/08/25 06:18:04;;;;;;;60.58;54.30;;;28.00;99.90;;;;;;5041642;28;20041;-66
2023/08/25 06:20:33;;;;;;;61.53;55.25;;;28.30;99.90;;;;;;5044754;28;20051;-66
2023/08/25 06:22:58;;;;;;;67.20;57.65;;;28.20;99.90;;;;;;5047439;28;20041;-66
2023/08/25 06:25:24;;;;;;;67.72;57.20;;;28.00;99.90;;;;;;5048384;28;20048;-66
2023/08/25 06:27:50;;;;;;;64.80;58.22;;;23.40;99.90;;;;;;5051480;28;20142;-66
2023/08/25 06:30:16;;;;;;;66.70;59.92;;;28.20;99.90;;;;;;5046592;28;20637;-67
2023/08/25 06:32:43;;;;;;;70.15;62.47;;;22.40;99.90;;;;;;5052567;28;20033;-66
2023/08/25 06:35:10;;;;;;;68.90;61.22;;;23.50;99.90;;;;;;5050779;28;20055;-66
2023/08/25 06:37:35;;;;;;;68.32;60.95;;;23.10;99.90;;;;;;5046678;28;20044;-66
2023/08/25 06:40:05;;;;;;;72.38;64.45;;;24.30;99.90;;;;;;5046938;28;20052;-72
2023/08/25 06:42:31;;;;;;;74.45;65.35;;;28.40;99.90;;;;;;5050114;28;20044;-66
2023/08/25 06:44:56;;;;;;;76.80;67.03;;;22.80;99.90;;;;;;5042585;28;20037;-66
2023/08/25 06:47:22;;;;;;;76.85;67.90;;;26.90;99.90;;;;;;5064901;28;20045;-66
2023/08/25 06:49:47;;;;;;;76.38;65.22;;;26.90;99.90;;;;;;5051855;28;20044;-66
2023/08/25 06:52:13;;;;;;;84.60;68.43;;;25.60;99.90;;;;;;5055343;28;20047;-66
2023/08/25 06:54:39;;;;;;;75.55;65.95;;;25.30;99.90;;;;;;5045778;28;20068;-66
2023/08/25 06:57:04;;;;;;;81.38;67.50;;;26.40;99.90;;;;;;5049619;28;20036;-66
2023/08/25 06:59:30;;;;;;;74.30;65.90;;;27.20;99.90;;;;;;5038801;28;20068;-66
2023/08/25 07:01:55;;;;;;;82.32;68.18;;;23.90;99.90;;;;;;5038670;28;20183;-66
2023/08/25 07:04:21;;;;;;;75.10;65.68;;;28.10;99.90;;;;;;5047347;28;20037;-66
2023/08/25 07:06:46;;;;;;;83.18;66.05;;;26.50;99.90;;;;;;5053868;28;20486;-66
2023/08/25 07:09:13;;;;;;;79.40;63.75;;;27.90;99.90;;;;;;5045406;28;20419;-66
2023/08/25 07:11:39;;;;;;;71.40;61.50;;;23.20;99.90;;;;;;5050590;28;20044;-66
2023/08/25 07:14:04;;;;;;;71.10;61.10;;;23.30;99.90;;;;;;5085540;28;20040;-66
2023/08/25 07:16:30;;;;;;;74.45;61.13;;;23.40;99.90;;;;;;5041854;28;20157;-67
2023/08/25 07:18:55;;;;;;;72.18;60.53;;;28.60;99.90;;;;;;5047698;28;20033;-67
2023/08/25 07:21:21;;;;;;;66.90;55.25;;;28.60;99.90;;;;;;5043031;28;20040;-63
2023/08/25 07:23:47;;;;;;;68.03;56.42;;;23.90;99.90;;;;;;5044349;28;20045;-65
2023/08/25 07:26:13;;;;;;;61.00;52.70;;;25.40;99.90;;;;;;5051139;28;20160;-66
2023/08/25 07:28:39;;;;;;;63.72;52.72;;;28.10;99.90;;;;;;5047027;28;20040;-66
2023/08/25 07:31:04;;;;;;;74.43;55.80;;;27.30;99.90;;;;;;5044958;28;20041;-66
2023/08/25 07:33:30;;;;;;;70.20;60.50;;;28.00;99.90;;;;;;5042128;28;20081;-67
2023/08/25 07:35:57;;;;;;;69.57;58.47;;;24.40;99.90;;;;;;5051613;28;20549;-66
2023/08/25 07:38:23;;;;;;;79.47;58.97;;;26.20;99.90;;;;;;5054297;28;20043;-66
2023/08/25 07:40:49;;;;;;;67.53;56.50;;;24.60;99.90;;;;;;5049981;28;20049;-66
2023/08/25 07:43:15;;;;;;;68.80;57.92;;;27.20;99.90;;;;;;5048659;28;20048;-66
2023/08/25 07:45:41;;;;;;;65.15;54.88;;;27.50;99.90;;;;;;5048333;28;20052;-66
2023/08/25 07:48:07;;;;;;;63.92;54.22;;;26.20;99.90;;;;;;5051720;28;20498;-66
2023/08/25 07:50:33;;;;;;;64.30;55.50;;;27.70;99.90;;;;;;5041792;28;20048;-66
2023/08/25 07:52:59;;;;;;;60.35;53.08;;;27.90;99.90;;;;;;5056683;28;20039;-67
2023/08/25 07:55:25;;;;;;;55.75;49.58;;;27.80;99.90;;;;;;5051013;28;20428;-67
2023/08/25 07:57:52;;;;;;;58.90;52.53;;;27.00;99.90;;;;;;5062807;28;20045;-66
2023/08/25 08:00:19;;;;;;;60.42;53.85;;;27.60;99.90;;;;;;5047944;28;20049;-66
2023/08/25 08:02:48;;;;;;;60.35;52.95;;;27.70;99.90;;;;;;5045242;28;20059;-66
2023/08/25 08:05:16;;;;;;;61.95;53.45;;;27.60;99.90;;;;;;5048191;28;20048;-67
2023/08/25 08:07:43;;;;;;;58.22;51.85;;;25.90;99.90;;;;;;5046515;28;20522;-67
2023/08/25 08:10:09;;;;;;;57.25;50.45;;;26.20;99.90;;;;;;5076947;28;20067;-67
2023/08/25 08:12:35;;;;;;;55.58;49.53;;;26.00;99.90;;;;;;5041331;28;20497;-67
2023/08/25 08:15:01;;;;;;;59.35;52.17;;;27.10;99.90;;;;;;5043977;28;20044;-67
2023/08/25 08:17:26;;;;;;;62.67;55.85;;;25.90;99.90;;;;;;5050055;28;20045;-67
2023/08/25 08:19:52;;;;;;;62.97;54.13;;;27.60;99.90;;;;;;5051673;28;20491;-67
2023/08/25 08:22:19;;;;;;;63.63;56.65;;;26.30;99.90;;;;;;5045156;28;20049;-67
2023/08/25 08:24:48;;;;;;;65.25;55.53;;;25.30;99.90;;;;;;5050365;28;20044;-67
2023/08/25 08:27:15;;;;;;;65.45;55.65;;;26.50;99.90;;;;;;5053369;28;20037;-67
2023/08/25 08:29:45;;;;;;;63.25;56.30;;;26.10;99.90;;;;;;5052144;28;20041;-68
2023/08/25 08:32:12;;;;;;;61.40;53.88;;;27.10;99.90;;;;;;5042065;28;20045;-68
2023/08/25 08:34:37;;;;;;;56.50;49.45;;;26.90;99.90;;;;;;5042209;28;20067;-67
2023/08/25 08:37:06;;;;;;;56.08;50.05;;;25.90;99.90;;;;;;5056244;28;20147;-64
2023/08/25 08:39:33;;;;;;;61.42;53.78;;;27.10;99.90;;;;;;5049204;28;20079;-64
2023/08/25 08:42:03;;;;;;;52.10;46.33;;;25.70;99.90;;;;;;5047579;28;20033;-65
2023/08/25 08:44:37;;;;;;;58.67;52.42;;;26.50;99.90;;;;;;5045215;28;20033;-63
2023/08/25 08:47:03;;;;;;;54.13;45.75;;;27.20;99.90;;;;;;5044358;28;20064;-63
2023/08/25 08:49:30;;;;;;;57.72;48.50;;;26.10;99.90;;;;;;5054846;28;20044;-62
2023/08/25 08:51:58;;;;;;;53.83;47.95;;;26.50;99.90;;;;;;5053214;28;20041;-64
2023/08/25 08:54:25;;;;;;;62.63;48.92;;;27.00;99.90;;;;;;5046992;28;20044;-64
2023/08/25 08:56:51;;;;;;;57.88;47.42;;;26.30;99.90;;;;;;5047870;28;20033;-64
2023/08/25 08:59:17;;;;;;;49.53;44.17;;;26.20;99.90;;;;;;5049606;28;20468;-64
2023/08/25 09:01:43;;;;;;;53.50;46.28;;;26.90;99.90;;;;;;5049803;28;20071;-64
2023/08/25 09:04:09;;;;;;;52.13;46.58;;;26.40;99.90;;;;;;5046321;28;20063;-63
2023/08/25 09:06:37;;;;;;;49.47;44.17;;;25.90;99.90;;;;;;5045821;28;20489;-64
2023/08/25 09:09:04;;;;;;;49.75;44.55;;;26.80;99.90;;;;;;5047573;28;20036;-65
2023/08/25 09:11:31;;;;;;;50.88;44.03;;;25.90;99.90;;;;;;5050390;28;20037;-63
2023/08/25 09:13:58;;;;;;;48.65;43.25;;;26.60;99.90;;;;;;5040582;28;20091;-66
2023/08/25 09:16:25;;;;;;;49.58;44.20;;;26.90;99.90;;;;;;5047958;28;20065;-64
2023/08/25 09:18:52;;;;;;;49.15;43.70;;;27.00;99.90;;;;;;5044916;28;20030;-63
2023/08/25 09:21:20;;;;;;;50.20;44.40;;;26.10;99.90;;;;;;5043889;28;20056;-64
2023/08/25 09:23:58;;;;;;;49.40;42.88;;;26.80;99.90;;;;;;5048296;28;20128;-64
2023/08/25 09:26:24;;;;;;;51.13;45.50;;;26.10;99.90;;;;;;5050381;28;20522;-63
2023/08/25 09:28:54;;;;;;;53.72;44.55;;;25.80;99.90;;;;;;5049993;28;20036;-63
2023/08/25 09:31:31;;;;;;;49.72;43.58;;;25.80;99.90;;;;;;5045697;28;20152;-64
2023/08/25 09:34:08;;;;;;;49.72;44.40;;;26.10;99.90;;;;;;5043360;28;20091;-63
2023/08/25 09:36:34;;;;;;;50.88;43.00;;;25.80;99.90;;;;;;5046324;28;20490;-63
2023/08/25 09:39:01;;;;;;;47.22;42.17;;;25.90;99.90;;;;;;5049625;28;20040;-63
2023/08/25 09:41:29;;;;;;;49.70;44.33;;;26.50;99.90;;;;;;5071626;28;20041;-64
2023/08/25 09:43:59;;;;;;;51.15;46.00;;;26.00;99.90;;;;;;5074217;28;20040;-64
2023/08/25 09:46:29;;;;;;;45.58;40.63;;;27.10;99.90;;;;;;5041821;28;20572;-65
2023/08/25 09:49:06;;;;;;;44.15;39.50;;;26.40;99.90;;;;;;5040405;28;20049;-65
2023/08/25 09:51:39;;;;;;;42.75;38.65;;;26.80;99.90;;;;;;5043913;28;20402;-65
2023/08/25 09:54:13;;;;;;;43.25;38.50;;;26.60;99.90;;;;;;5046915;28;20037;-65
2023/08/25 09:56:44;;;;;;;45.13;40.70;;;27.00;99.90;;;;;;5040816;28;20513;-64
2023/08/25 09:59:11;;;;;;;40.88;36.63;;;27.30;99.90;;;;;;5044434;28;20056;-65
2023/08/25 10:01:39;;;;;;;41.40;37.40;;;26.80;99.90;;;;;;5051323;28;20056;-65
2023/08/25 10:04:05;;;;;;;40.95;36.75;;;27.20;99.90;;;;;;5042984;28;20040;-65
2023/08/25 10:06:32;;;;;;;39.67;35.88;;;26.40;99.90;;;;;;5052836;28;20167;-65
2023/08/25 10:08:59;;;;;;;40.08;36.10;;;26.90;99.90;;;;;;5051656;28;20040;-65
2023/08/25 10:11:28;;;;;;;40.72;36.67;;;26.90;99.90;;;;;;5044769;28;20052;-65
2023/08/25 10:13:56;;;;;;;43.17;38.72;;;27.00;99.90;;;;;;5043473;28;20190;-65
2023/08/25 10:16:27;;;;;;;43.38;36.50;;;27.40;99.90;;;;;;5047014;28;20040;-65
2023/08/25 10:18:56;;;;;;;37.60;33.75;;;26.40;99.90;;;;;;5051013;28;20383;-65
2023/08/25 10:21:23;;;;;;;39.35;35.55;;;26.20;99.90;;;;;;5042802;28;20538;-64
2023/08/25 10:23:53;;;;;;;39.58;35.10;;;26.30;99.90;;;;;;5058359;28;20041;-65
2023/08/25 10:26:21;;;;;;;41.28;37.17;;;26.80;99.90;;;;;;5047654;28;20052;-65
2023/08/25 10:28:47;;;;;;;38.97;35.22;;;26.20;99.90;;;;;;5045262;28;20190;-64
2023/08/25 10:31:14;;;;;;;36.92;33.08;;;26.20;99.90;;;;;;5049492;28;20049;-64
2023/08/25 10:33:51;;;;;;;38.90;34.78;;;26.60;99.90;;;;;;5048016;28;20124;-65
2023/08/25 10:36:20;;;;;;;36.15;32.38;;;26.40;99.90;;;;;;5045078;28;20499;-64
2023/08/25 10:38:49;;;;;;;35.72;32.22;;;26.30;99.90;;;;;;5050775;28;20076;-65
2023/08/25 10:41:19;;;;;;;37.85;33.90;;;26.50;99.90;;;;;;5044084;28;20052;-66
2023/08/25 10:43:47;;;;;;;36.15;32.40;;;26.90;99.90;;;;;;5060784;28;20041;-66
2023/08/25 10:46:13;;;;;;;32.30;29.23;;;26.90;99.90;;;;;;5048864;28;20087;-66
2023/08/25 10:48:40;;;;;;;32.30;29.20;;;26.70;99.90;;;;;;5052114;28;20053;-65
2023/08/25 10:51:10;;;;;;;32.88;29.38;;;27.10;99.90;;;;;;5048437;28;20045;-65
2023/08/25 10:53:37;;;;;;;32.10;28.75;;;27.00;99.90;;;;;;5043362;28;20037;-65
2023/08/25 10:56:21;;;;;;;35.22;31.42;;;27.40;99.90;;;;;;5043887;28;20045;-66
2023/08/25 10:59:06;;;;;;;32.42;29.23;;;27.10;99.90;;;;;;5037031;28;20087;-66
2023/08/25 11:01:38;;;;;;;31.92;28.65;;;27.20;99.90;;;;;;5046979;28;20049;-65
2023/08/25 11:04:10;;;;;;;34.40;31.08;;;27.30;99.90;;;;;;5041790;28;20072;-66
2023/08/25 11:06:43;;;;;;;32.70;29.60;;;27.30;99.90;;;;;;5041696;28;20043;-66
2023/08/25 11:09:30;;;;;;;30.98;27.83;;;27.40;99.90;;;;;;5047621;28;20074;-65
2023/08/25 11:12:06;;;;;;;31.30;28.20;;;27.50;99.90;;;;;;5047213;28;20050;-64
2023/08/25 11:14:37;;;;;;;33.33;29.90;;;27.00;99.90;;;;;;5046463;28;20094;-65
2023/08/25 11:17:05;;;;;;;33.58;30.05;;;27.30;99.90;;;;;;5055117;28;20040;-65
2023/08/25 11:19:32;;;;;;;33.67;30.55;;;27.40;99.90;;;;;;5053398;28;20503;-65
2023/08/25 11:22:11;;;;;;;33.28;29.98;;;27.50;99.90;;;;;;5073233;28;20048;-65
2023/08/25 11:24:37;;;;;;;35.67;31.98;;;27.40;99.90;;;;;;5042370;28;20033;-65
2023/08/25 11:27:09;;;;;;;36.13;32.53;;;27.40;99.90;;;;;;5047409;28;20037;-65
2023/08/25 11:29:34;;;;;;;37.13;33.47;;;27.50;99.90;;;;;;5051419;28;20036;-64
2023/08/25 11:32:02;;;;;;;35.05;31.35;;;27.50;20.60;;;;;;5048181;28;20033;-65
2023/08/25 11:34:32;;;;;;;33.72;30.38;;;27.40;1.00;;;;;;5089998;28;20072;-64
2023/08/25 11:36:58;;;;;;;34.38;30.67;;;27.10;99.90;;;;;;5046512;28;20048;-64
2023/08/25 11:39:23;;;;;;;33.20;30.10;;;27.20;99.90;;;;;;5052248;28;20036;-65
2023/08/25 11:41:53;;;;;;;34.75;31.10;;;27.40;1.00;;;;;;5056857;28;20040;-64
2023/08/25 11:44:18;;;;;;;33.95;30.40;;;27.10;1.00;;;;;;5051216;28;20044;-64
2023/08/25 11:46:44;;;;;;;32.58;29.30;;;27.10;99.90;;;;;;5047851;28;20029;-64
2023/08/25 11:49:10;;;;;;;31.38;28.17;;;27.60;99.90;;;;;;5057003;28;20067;-64
2023/08/25 11:51:36;;;;;;;32.20;28.80;;;27.20;99.90;;;;;;5051107;28;20127;-64
2023/08/25 11:54:05;;;;;;;34.83;31.15;;;27.50;1.00;;;;;;5049458;28;20039;-64
2023/08/25 11:56:32;;;;;;;33.38;29.92;;;27.60;1.00;;;;;;5055974;28;20095;-64
2023/08/25 11:58:57;;;;;;;34.33;30.90;;;27.60;99.90;;;;;;5050699;28;20057;-64
2023/08/25 12:01:31;;;;;;;34.65;31.45;;;27.40;1.00;;;;;;5048441;28;20055;-64
2023/08/25 12:03:58;;;;;;;34.22;30.63;;;27.10;99.90;;;;;;5049913;28;20040;-64
2023/08/25 12:06:25;;;;;;;34.13;30.58;;;26.70;1.00;;;;;;5052191;28;20037;-64
2023/08/25 12:08:50;;;;;;;34.42;30.95;;;27.10;1.00;;;;;;5056207;28;20045;-64
2023/08/25 12:11:16;;;;;;;33.60;30.40;;;26.80;1.00;;;;;;5049873;28;20049;-64
2023/08/25 12:13:44;;;;;;;33.75;30.27;;;27.00;1.00;;;;;;5047428;28;20048;-64
2023/08/25 12:16:13;;;;;;;33.65;30.35;;;27.10;1.00;;;;;;5046259;28;20029;-64
2023/08/25 12:18:40;;;;;;;34.58;31.30;;;26.80;1.00;;;;;;5048021;28;20507;-64
2023/08/25 12:21:06;;;;;;;35.00;31.77;;;27.10;1.00;;;;;;5050845;28;20044;-64
2023/08/25 12:23:38;;;;;;;31.63;28.52;;;27.10;99.90;;;;;;5048430;28;20032;-66